sensor_id;sensor_type;location;lat;lon;timestamp;P1;durP1;ratioP1;P2;durP2;ratioP2
67995;SDS011;54772;53.544;49.324;2023-06-22T00:02:46;3.40;;;1.95;;
67995;SDS011;54772;53.544;49.324;2023-06-22T00:05:33;2.95;;;1.90;;
67995;SDS011;54772;53.544;49.324;2023-06-22T00:11:06;3.00;;;1.77;;
67995;SDS011;54772;53.544;49.324;2023-06-22T00:13:53;2.40;;;1.67;;
67995;SDS011;54772;53.544;49.324;2023-06-22T00:16:40;1.70;;;1.52;;
67995;SDS011;54772;53.544;49.324;2023-06-22T00:19:27;2.62;;;1.52;;
67995;SDS011;54772;53.544;49.324;2023-06-22T00:22:14;3.08;;;1.77;;
67995;SDS011;54772;53.544;49.324;2023-06-22T00:25:02;4.20;;;1.70;;
67995;SDS011;54772;53.544;49.324;2023-06-22T00:27:49;2.50;;;1.60;;
67995;SDS011;54772;53.544;49.324;2023-06-22T00:30:32;2.15;;;1.52;;
67995;SDS011;54772;53.544;49.324;2023-06-22T00:33:19;2.47;;;1.65;;
67995;SDS011;54772;53.544;49.324;2023-06-22T00:36:06;4.62;;;1.40;;
67995;SDS011;54772;53.544;49.324;2023-06-22T00:38:58;3.25;;;1.80;;
67995;SDS011;54772;53.544;49.324;2023-06-22T00:41:44;2.97;;;1.60;;
67995;SDS011;54772;53.544;49.324;2023-06-22T00:44:33;2.00;;;1.20;;
67995;SDS011;54772;53.544;49.324;2023-06-22T00:47:20;3.35;;;2.08;;
67995;SDS011;54772;53.544;49.324;2023-06-22T00:50:08;2.35;;;1.58;;
67995;SDS011;54772;53.544;49.324;2023-06-22T00:52:55;2.90;;;1.73;;
67995;SDS011;54772;53.544;49.324;2023-06-22T00:55:44;4.12;;;1.62;;
67995;SDS011;54772;53.544;49.324;2023-06-22T00:58:36;3.17;;;1.60;;
67995;SDS011;54772;53.544;49.324;2023-06-22T01:01:26;2.37;;;1.45;;
67995;SDS011;54772;53.544;49.324;2023-06-22T01:04:14;2.47;;;1.50;;
67995;SDS011;54772;53.544;49.324;2023-06-22T01:07:14;2.60;;;1.90;;
67995;SDS011;54772;53.544;49.324;2023-06-22T01:16:31;4.55;;;1.60;;
67995;SDS011;54772;53.544;49.324;2023-06-22T01:23:26;2.53;;;1.67;;
67995;SDS011;54772;53.544;49.324;2023-06-22T01:25:57;3.05;;;1.90;;
67995;SDS011;54772;53.544;49.324;2023-06-22T01:28:46;2.85;;;1.52;;
67995;SDS011;54772;53.544;49.324;2023-06-22T01:31:34;2.25;;;1.33;;
67995;SDS011;54772;53.544;49.324;2023-06-22T01:34:21;2.12;;;1.42;;
67995;SDS011;54772;53.544;49.324;2023-06-22T01:37:08;3.90;;;1.60;;
67995;SDS011;54772;53.544;49.324;2023-06-22T01:39:55;2.08;;;1.58;;
67995;SDS011;54772;53.544;49.324;2023-06-22T01:42:42;2.10;;;1.33;;
67995;SDS011;54772;53.544;49.324;2023-06-22T01:45:29;2.33;;;1.77;;
67995;SDS011;54772;53.544;49.324;2023-06-22T01:48:17;2.83;;;1.60;;
67995;SDS011;54772;53.544;49.324;2023-06-22T01:51:03;1.58;;;1.10;;
67995;SDS011;54772;53.544;49.324;2023-06-22T01:53:51;3.45;;;1.92;;
67995;SDS011;54772;53.544;49.324;2023-06-22T01:56:37;1.77;;;1.20;;
67995;SDS011;54772;53.544;49.324;2023-06-22T02:02:20;4.18;;;1.55;;
67995;SDS011;54772;53.544;49.324;2023-06-22T02:05:14;3.08;;;1.48;;
67995;SDS011;54772;53.544;49.324;2023-06-22T02:08:09;3.05;;;1.75;;
67995;SDS011;54772;53.544;49.324;2023-06-22T02:11:02;3.35;;;1.70;;
67995;SDS011;54772;53.544;49.324;2023-06-22T02:13:49;2.08;;;1.52;;
67995;SDS011;54772;53.544;49.324;2023-06-22T02:16:36;2.42;;;1.70;;
67995;SDS011;54772;53.544;49.324;2023-06-22T02:19:23;1.83;;;1.48;;
67995;SDS011;54772;53.544;49.324;2023-06-22T02:22:11;3.08;;;1.85;;
67995;SDS011;54772;53.544;49.324;2023-06-22T02:24:59;1.90;;;1.67;;
67995;SDS011;54772;53.544;49.324;2023-06-22T02:27:45;2.90;;;1.50;;
67995;SDS011;54772;53.544;49.324;2023-06-22T02:30:35;2.90;;;1.40;;
67995;SDS011;54772;53.544;49.324;2023-06-22T02:33:22;3.17;;;1.60;;
67995;SDS011;54772;53.544;49.324;2023-06-22T02:36:08;3.17;;;1.73;;
67995;SDS011;54772;53.544;49.324;2023-06-22T02:38:58;2.87;;;1.50;;
67995;SDS011;54772;53.544;49.324;2023-06-22T02:41:46;1.50;;;1.10;;
67995;SDS011;54772;53.544;49.324;2023-06-22T02:44:33;4.30;;;1.80;;
67995;SDS011;54772;53.544;49.324;2023-06-22T02:47:20;3.50;;;1.50;;
67995;SDS011;54772;53.544;49.324;2023-06-22T02:50:07;3.83;;;1.48;;
67995;SDS011;54772;53.544;49.324;2023-06-22T02:52:55;2.15;;;1.85;;
67995;SDS011;54772;53.544;49.324;2023-06-22T02:55:41;2.83;;;1.52;;
67995;SDS011;54772;53.544;49.324;2023-06-22T02:58:28;2.53;;;1.80;;
67995;SDS011;54772;53.544;49.324;2023-06-22T03:01:14;2.33;;;1.45;;
67995;SDS011;54772;53.544;49.324;2023-06-22T03:04:02;2.90;;;1.62;;
67995;SDS011;54772;53.544;49.324;2023-06-22T03:06:50;1.77;;;1.37;;
67995;SDS011;54772;53.544;49.324;2023-06-22T03:09:37;4.35;;;1.85;;
67995;SDS011;54772;53.544;49.324;2023-06-22T03:15:11;2.80;;;1.63;;
67995;SDS011;54772;53.544;49.324;2023-06-22T03:17:58;2.70;;;1.70;;
67995;SDS011;54772;53.544;49.324;2023-06-22T03:20:45;3.12;;;1.95;;
67995;SDS011;54772;53.544;49.324;2023-06-22T03:23:31;2.22;;;1.55;;
67995;SDS011;54772;53.544;49.324;2023-06-22T03:26:19;2.35;;;1.60;;
67995;SDS011;54772;53.544;49.324;2023-06-22T03:29:06;2.25;;;1.20;;
67995;SDS011;54772;53.544;49.324;2023-06-22T03:31:53;2.17;;;1.33;;
67995;SDS011;54772;53.544;49.324;2023-06-22T03:34:41;3.03;;;1.90;;
67995;SDS011;54772;53.544;49.324;2023-06-22T03:37:32;2.85;;;1.70;;
67995;SDS011;54772;53.544;49.324;2023-06-22T03:40:19;2.40;;;1.35;;
67995;SDS011;54772;53.544;49.324;2023-06-22T03:45:51;5.37;;;1.70;;
67995;SDS011;54772;53.544;49.324;2023-06-22T03:48:38;3.65;;;1.77;;
67995;SDS011;54772;53.544;49.324;2023-06-22T03:51:25;4.80;;;1.95;;
67995;SDS011;54772;53.544;49.324;2023-06-22T03:54:13;2.03;;;1.37;;
67995;SDS011;54772;53.544;49.324;2023-06-22T03:59:46;2.40;;;1.25;;
67995;SDS011;54772;53.544;49.324;2023-06-22T04:02:33;2.08;;;1.48;;
67995;SDS011;54772;53.544;49.324;2023-06-22T04:05:20;1.45;;;1.35;;
67995;SDS011;54772;53.544;49.324;2023-06-22T04:10:53;4.55;;;1.10;;
67995;SDS011;54772;53.544;49.324;2023-06-22T04:13:40;1.60;;;1.33;;
67995;SDS011;54772;53.544;49.324;2023-06-22T04:16:27;1.50;;;1.12;;
67995;SDS011;54772;53.544;49.324;2023-06-22T04:19:14;1.48;;;1.05;;
67995;SDS011;54772;53.544;49.324;2023-06-22T04:22:03;5.85;;;1.33;;
67995;SDS011;54772;53.544;49.324;2023-06-22T04:24:51;0.50;;;0.45;;
67995;SDS011;54772;53.544;49.324;2023-06-22T04:27:38;2.80;;;1.65;;
67995;SDS011;54772;53.544;49.324;2023-06-22T04:30:25;1.87;;;0.98;;
67995;SDS011;54772;53.544;49.324;2023-06-22T04:33:13;2.80;;;1.50;;
67995;SDS011;54772;53.544;49.324;2023-06-22T04:36:00;0.88;;;0.70;;
67995;SDS011;54772;53.544;49.324;2023-06-22T04:38:46;3.85;;;1.42;;
67995;SDS011;54772;53.544;49.324;2023-06-22T04:41:32;1.83;;;1.20;;
67995;SDS011;54772;53.544;49.324;2023-06-22T04:44:27;2.40;;;1.40;;
67995;SDS011;54772;53.544;49.324;2023-06-22T04:49:19;3.92;;;1.60;;
67995;SDS011;54772;53.544;49.324;2023-06-22T04:52:08;1.67;;;1.12;;
67995;SDS011;54772;53.544;49.324;2023-06-22T04:54:56;3.08;;;1.37;;
67995;SDS011;54772;53.544;49.324;2023-06-22T04:57:45;1.92;;;0.98;;
67995;SDS011;54772;53.544;49.324;2023-06-22T05:00:35;2.83;;;1.95;;
67995;SDS011;54772;53.544;49.324;2023-06-22T05:03:22;2.58;;;1.50;;
67995;SDS011;54772;53.544;49.324;2023-06-22T05:06:10;1.87;;;1.12;;
67995;SDS011;54772;53.544;49.324;2023-06-22T05:08:58;1.87;;;1.35;;
67995;SDS011;54772;53.544;49.324;2023-06-22T05:14:31;2.33;;;1.20;;
67995;SDS011;54772;53.544;49.324;2023-06-22T05:17:18;2.25;;;1.45;;
67995;SDS011;54772;53.544;49.324;2023-06-22T05:20:05;3.58;;;1.15;;
67995;SDS011;54772;53.544;49.324;2023-06-22T05:22:53;1.48;;;0.98;;
67995;SDS011;54772;53.544;49.324;2023-06-22T05:25:40;1.55;;;1.45;;
67995;SDS011;54772;53.544;49.324;2023-06-22T05:31:13;1.23;;;0.80;;
67995;SDS011;54772;53.544;49.324;2023-06-22T05:34:00;1.90;;;1.23;;
67995;SDS011;54772;53.544;49.324;2023-06-22T05:39:33;3.58;;;1.08;;
67995;SDS011;54772;53.544;49.324;2023-06-22T05:42:22;1.80;;;0.93;;
67995;SDS011;54772;53.544;49.324;2023-06-22T05:45:10;0.77;;;0.73;;
67995;SDS011;54772;53.544;49.324;2023-06-22T05:50:43;3.05;;;1.33;;
67995;SDS011;54772;53.544;49.324;2023-06-22T05:53:30;1.10;;;0.80;;
67995;SDS011;54772;53.544;49.324;2023-06-22T05:56:17;1.02;;;0.73;;
67995;SDS011;54772;53.544;49.324;2023-06-22T05:59:04;1.23;;;0.95;;
67995;SDS011;54772;53.544;49.324;2023-06-22T06:01:51;1.27;;;0.77;;
67995;SDS011;54772;53.544;49.324;2023-06-22T06:04:38;1.42;;;0.95;;
67995;SDS011;54772;53.544;49.324;2023-06-22T06:10:12;1.05;;;0.70;;
67995;SDS011;54772;53.544;49.324;2023-06-22T06:12:59;1.75;;;1.08;;
67995;SDS011;54772;53.544;49.324;2023-06-22T06:15:52;1.70;;;0.95;;
67995;SDS011;54772;53.544;49.324;2023-06-22T06:18:40;0.70;;;0.70;;
67995;SDS011;54772;53.544;49.324;2023-06-22T06:21:28;1.48;;;1.20;;
67995;SDS011;54772;53.544;49.324;2023-06-22T06:24:14;1.23;;;0.90;;
67995;SDS011;54772;53.544;49.324;2023-06-22T06:29:49;1.67;;;1.20;;
67995;SDS011;54772;53.544;49.324;2023-06-22T06:35:24;3.83;;;1.62;;
67995;SDS011;54772;53.544;49.324;2023-06-22T06:38:11;4.97;;;1.25;;
67995;SDS011;54772;53.544;49.324;2023-06-22T06:43:45;2.60;;;1.50;;
67995;SDS011;54772;53.544;49.324;2023-06-22T06:46:31;2.15;;;1.10;;
67995;SDS011;54772;53.544;49.324;2023-06-22T06:49:18;2.17;;;1.45;;
67995;SDS011;54772;53.544;49.324;2023-06-22T06:52:05;2.08;;;1.20;;
67995;SDS011;54772;53.544;49.324;2023-06-22T06:54:52;3.67;;;1.20;;
67995;SDS011;54772;53.544;49.324;2023-06-22T06:57:38;3.20;;;1.40;;
67995;SDS011;54772;53.544;49.324;2023-06-22T07:00:26;1.52;;;1.35;;
67995;SDS011;54772;53.544;49.324;2023-06-22T07:05:59;2.33;;;1.40;;
67995;SDS011;54772;53.544;49.324;2023-06-22T07:08:46;3.12;;;1.50;;
67995;SDS011;54772;53.544;49.324;2023-06-22T07:11:33;2.28;;;1.52;;
67995;SDS011;54772;53.544;49.324;2023-06-22T07:14:20;2.42;;;1.62;;
67995;SDS011;54772;53.544;49.324;2023-06-22T07:17:07;2.00;;;1.20;;
67995;SDS011;54772;53.544;49.324;2023-06-22T07:19:54;2.45;;;1.80;;
67995;SDS011;54772;53.544;49.324;2023-06-22T07:22:42;2.28;;;1.75;;
67995;SDS011;54772;53.544;49.324;2023-06-22T07:25:29;2.83;;;1.30;;
67995;SDS011;54772;53.544;49.324;2023-06-22T07:31:03;0.98;;;0.77;;
67995;SDS011;54772;53.544;49.324;2023-06-22T07:33:50;1.73;;;1.30;;
67995;SDS011;54772;53.544;49.324;2023-06-22T07:36:36;2.12;;;1.40;;
67995;SDS011;54772;53.544;49.324;2023-06-22T07:39:23;1.45;;;1.15;;
67995;SDS011;54772;53.544;49.324;2023-06-22T07:42:11;2.00;;;1.20;;
67995;SDS011;54772;53.544;49.324;2023-06-22T07:47:44;1.50;;;1.30;;
67995;SDS011;54772;53.544;49.324;2023-06-22T07:50:30;2.22;;;1.90;;
67995;SDS011;54772;53.544;49.324;2023-06-22T07:56:03;2.20;;;1.27;;
67995;SDS011;54772;53.544;49.324;2023-06-22T07:58:52;1.75;;;1.37;;
67995;SDS011;54772;53.544;49.324;2023-06-22T08:01:39;5.72;;;1.48;;
67995;SDS011;54772;53.544;49.324;2023-06-22T08:04:27;2.25;;;1.50;;
67995;SDS011;54772;53.544;49.324;2023-06-22T08:07:09;1.80;;;1.30;;
67995;SDS011;54772;53.544;49.324;2023-06-22T08:09:56;2.10;;;1.52;;
67995;SDS011;54772;53.544;49.324;2023-06-22T08:15:30;1.17;;;1.00;;
67995;SDS011;54772;53.544;49.324;2023-06-22T08:21:03;1.73;;;1.17;;
67995;SDS011;54772;53.544;49.324;2023-06-22T08:23:49;1.50;;;1.10;;
67995;SDS011;54772;53.544;49.324;2023-06-22T08:26:36;1.27;;;0.93;;
67995;SDS011;54772;53.544;49.324;2023-06-22T08:29:23;1.75;;;1.33;;
67995;SDS011;54772;53.544;49.324;2023-06-22T08:32:10;1.50;;;1.40;;
67995;SDS011;54772;53.544;49.324;2023-06-22T08:34:57;1.42;;;1.15;;
67995;SDS011;54772;53.544;49.324;2023-06-22T08:37:44;2.50;;;1.20;;
67995;SDS011;54772;53.544;49.324;2023-06-22T08:40:36;1.02;;;0.80;;
67995;SDS011;54772;53.544;49.324;2023-06-22T08:46:10;0.95;;;0.90;;
67995;SDS011;54772;53.544;49.324;2023-06-22T08:48:57;0.77;;;0.75;;
67995;SDS011;54772;53.544;49.324;2023-06-22T08:51:44;2.42;;;1.05;;
67995;SDS011;54772;53.544;49.324;2023-06-22T08:54:33;1.12;;;0.90;;
67995;SDS011;54772;53.544;49.324;2023-06-22T08:57:20;1.77;;;0.90;;
67995;SDS011;54772;53.544;49.324;2023-06-22T09:00:07;0.77;;;0.70;;
67995;SDS011;54772;53.544;49.324;2023-06-22T09:03:05;2.03;;;0.98;;
67995;SDS011;54772;53.544;49.324;2023-06-22T09:05:52;2.12;;;0.90;;
67995;SDS011;54772;53.544;49.324;2023-06-22T09:11:25;0.45;;;0.45;;
67995;SDS011;54772;53.544;49.324;2023-06-22T09:14:12;1.02;;;0.90;;
67995;SDS011;54772;53.544;49.324;2023-06-22T09:16:59;2.15;;;1.20;;
67995;SDS011;54772;53.544;49.324;2023-06-22T09:19:46;0.80;;;0.80;;
67995;SDS011;54772;53.544;49.324;2023-06-22T09:22:33;0.80;;;0.70;;
67995;SDS011;54772;53.544;49.324;2023-06-22T09:28:07;1.62;;;1.10;;
67995;SDS011;54772;53.544;49.324;2023-06-22T09:30:53;1.40;;;1.10;;
67995;SDS011;54772;53.544;49.324;2023-06-22T09:33:43;1.70;;;1.10;;
67995;SDS011;54772;53.544;49.324;2023-06-22T09:36:29;2.08;;;1.12;;
67995;SDS011;54772;53.544;49.324;2023-06-22T09:39:17;2.05;;;1.02;;
67995;SDS011;54772;53.544;49.324;2023-06-22T09:42:04;1.23;;;0.80;;
67995;SDS011;54772;53.544;49.324;2023-06-22T09:44:51;2.33;;;1.10;;
67995;SDS011;54772;53.544;49.324;2023-06-22T09:50:25;1.77;;;1.20;;
67995;SDS011;54772;53.544;49.324;2023-06-22T09:53:11;1.40;;;1.30;;
67995;SDS011;54772;53.544;49.324;2023-06-22T09:55:58;2.00;;;0.98;;
67995;SDS011;54772;53.544;49.324;2023-06-22T09:58:46;3.03;;;1.48;;
67995;SDS011;54772;53.544;49.324;2023-06-22T10:01:35;1.50;;;1.12;;
67995;SDS011;54772;53.544;49.324;2023-06-22T10:09:56;1.85;;;1.40;;
67995;SDS011;54772;53.544;49.324;2023-06-22T10:12:46;3.25;;;1.55;;
67995;SDS011;54772;53.544;49.324;2023-06-22T10:15:40;1.83;;;1.17;;
67995;SDS011;54772;53.544;49.324;2023-06-22T10:18:26;3.92;;;1.65;;
67995;SDS011;54772;53.544;49.324;2023-06-22T10:24:01;1.30;;;1.20;;
67995;SDS011;54772;53.544;49.324;2023-06-22T10:26:51;1.58;;;1.40;;
67995;SDS011;54772;53.544;49.324;2023-06-22T10:29:37;3.10;;;1.20;;
67995;SDS011;54772;53.544;49.324;2023-06-22T10:32:25;2.55;;;1.77;;
67995;SDS011;54772;53.544;49.324;2023-06-22T10:35:13;2.65;;;1.67;;
67995;SDS011;54772;53.544;49.324;2023-06-22T10:38:02;3.67;;;2.03;;
67995;SDS011;54772;53.544;49.324;2023-06-22T10:40:48;3.08;;;1.70;;
67995;SDS011;54772;53.544;49.324;2023-06-22T10:43:35;2.65;;;1.80;;
67995;SDS011;54772;53.544;49.324;2023-06-22T10:46:24;3.08;;;1.55;;
67995;SDS011;54772;53.544;49.324;2023-06-22T10:49:11;2.65;;;1.60;;
67995;SDS011;54772;53.544;49.324;2023-06-22T10:54:44;2.35;;;1.73;;
67995;SDS011;54772;53.544;49.324;2023-06-22T10:57:30;1.60;;;1.30;;
67995;SDS011;54772;53.544;49.324;2023-06-22T11:00:18;2.22;;;1.55;;
67995;SDS011;54772;53.544;49.324;2023-06-22T11:03:06;2.55;;;1.40;;
67995;SDS011;54772;53.544;49.324;2023-06-22T11:05:53;2.55;;;1.77;;
67995;SDS011;54772;53.544;49.324;2023-06-22T11:11:29;2.25;;;1.55;;
67995;SDS011;54772;53.544;49.324;2023-06-22T11:14:15;1.85;;;1.10;;
67995;SDS011;54772;53.544;49.324;2023-06-22T11:17:02;2.50;;;1.60;;
67995;SDS011;54772;53.544;49.324;2023-06-22T11:19:49;2.65;;;1.55;;
67995;SDS011;54772;53.544;49.324;2023-06-22T11:22:40;2.20;;;1.60;;
67995;SDS011;54772;53.544;49.324;2023-06-22T11:25:27;2.67;;;1.80;;
67995;SDS011;54772;53.544;49.324;2023-06-22T11:28:14;2.78;;;1.87;;
67995;SDS011;54772;53.544;49.324;2023-06-22T11:33:47;3.00;;;1.90;;
67995;SDS011;54772;53.544;49.324;2023-06-22T11:36:33;2.55;;;1.60;;
67995;SDS011;54772;53.544;49.324;2023-06-22T11:39:21;2.53;;;1.40;;
67995;SDS011;54772;53.544;49.324;2023-06-22T11:42:08;2.87;;;1.62;;
67995;SDS011;54772;53.544;49.324;2023-06-22T11:44:55;2.10;;;1.15;;
67995;SDS011;54772;53.544;49.324;2023-06-22T11:50:28;3.70;;;1.65;;
67995;SDS011;54772;53.544;49.324;2023-06-22T11:53:20;4.05;;;1.87;;
67995;SDS011;54772;53.544;49.324;2023-06-22T11:56:07;2.53;;;1.40;;
67995;SDS011;54772;53.544;49.324;2023-06-22T12:01:40;2.97;;;1.98;;
67995;SDS011;54772;53.544;49.324;2023-06-22T12:04:27;4.10;;;1.85;;
67995;SDS011;54772;53.544;49.324;2023-06-22T12:07:14;4.35;;;1.45;;
67995;SDS011;54772;53.544;49.324;2023-06-22T12:10:01;2.90;;;1.73;;
67995;SDS011;54772;53.544;49.324;2023-06-22T12:12:48;3.62;;;1.80;;
67995;SDS011;54772;53.544;49.324;2023-06-22T12:15:35;4.32;;;1.60;;
67995;SDS011;54772;53.544;49.324;2023-06-22T12:18:21;1.77;;;1.33;;
67995;SDS011;54772;53.544;49.324;2023-06-22T12:21:09;3.28;;;1.77;;
67995;SDS011;54772;53.544;49.324;2023-06-22T12:26:42;3.85;;;2.10;;
67995;SDS011;54772;53.544;49.324;2023-06-22T12:29:29;2.58;;;1.60;;
67995;SDS011;54772;53.544;49.324;2023-06-22T12:32:16;2.22;;;1.67;;
67995;SDS011;54772;53.544;49.324;2023-06-22T12:37:50;3.22;;;1.50;;
67995;SDS011;54772;53.544;49.324;2023-06-22T12:40:36;2.20;;;1.60;;
67995;SDS011;54772;53.544;49.324;2023-06-22T12:46:09;1.67;;;1.30;;
67995;SDS011;54772;53.544;49.324;2023-06-22T12:48:55;3.65;;;1.70;;
67995;SDS011;54772;53.544;49.324;2023-06-22T12:54:29;2.00;;;1.70;;
67995;SDS011;54772;53.544;49.324;2023-06-22T12:57:15;3.28;;;1.20;;
67995;SDS011;54772;53.544;49.324;2023-06-22T13:00:03;4.80;;;1.30;;
67995;SDS011;54772;53.544;49.324;2023-06-22T13:02:51;1.77;;;1.02;;
67995;SDS011;54772;53.544;49.324;2023-06-22T13:05:38;2.10;;;1.37;;
67995;SDS011;54772;53.544;49.324;2023-06-22T13:08:25;1.95;;;1.48;;
67995;SDS011;54772;53.544;49.324;2023-06-22T13:11:12;1.10;;;1.00;;
67995;SDS011;54772;53.544;49.324;2023-06-22T13:13:58;1.98;;;0.95;;
67995;SDS011;54772;53.544;49.324;2023-06-22T13:16:45;3.30;;;1.30;;
67995;SDS011;54772;53.544;49.324;2023-06-22T13:22:31;2.40;;;1.23;;
67995;SDS011;54772;53.544;49.324;2023-06-22T13:25:25;3.03;;;1.55;;
67995;SDS011;54772;53.544;49.324;2023-06-22T13:28:12;5.62;;;1.60;;
67995;SDS011;54772;53.544;49.324;2023-06-22T13:31:00;3.12;;;1.50;;
67995;SDS011;54772;53.544;49.324;2023-06-22T13:33:47;2.08;;;1.35;;
67995;SDS011;54772;53.544;49.324;2023-06-22T13:36:37;2.15;;;1.27;;
67995;SDS011;54772;53.544;49.324;2023-06-22T13:39:24;2.78;;;1.60;;
67995;SDS011;54772;53.544;49.324;2023-06-22T13:42:11;3.37;;;1.80;;
67995;SDS011;54772;53.544;49.324;2023-06-22T13:44:58;2.25;;;1.48;;
67995;SDS011;54772;53.544;49.324;2023-06-22T13:47:44;2.40;;;1.35;;
67995;SDS011;54772;53.544;49.324;2023-06-22T13:50:32;3.80;;;2.12;;
67995;SDS011;54772;53.544;49.324;2023-06-22T13:56:05;1.87;;;1.33;;
67995;SDS011;54772;53.544;49.324;2023-06-22T14:01:38;2.78;;;1.40;;
67995;SDS011;54772;53.544;49.324;2023-06-22T14:04:26;3.17;;;1.50;;
67995;SDS011;54772;53.544;49.324;2023-06-22T14:07:13;2.50;;;1.55;;
67995;SDS011;54772;53.544;49.324;2023-06-22T14:10:00;2.83;;;1.58;;
67995;SDS011;54772;53.544;49.324;2023-06-22T14:12:47;1.52;;;1.15;;
67995;SDS011;54772;53.544;49.324;2023-06-22T14:18:20;2.97;;;1.50;;
67995;SDS011;54772;53.544;49.324;2023-06-22T14:21:10;2.97;;;1.33;;
67995;SDS011;54772;53.544;49.324;2023-06-22T14:23:56;1.75;;;1.20;;
67995;SDS011;54772;53.544;49.324;2023-06-22T14:29:29;3.42;;;1.50;;
67995;SDS011;54772;53.544;49.324;2023-06-22T14:35:02;2.83;;;1.90;;
67995;SDS011;54772;53.544;49.324;2023-06-22T14:37:50;3.08;;;1.75;;
67995;SDS011;54772;53.544;49.324;2023-06-22T14:40:36;3.92;;;1.77;;
67995;SDS011;54772;53.544;49.324;2023-06-22T14:43:24;3.17;;;1.62;;
67995;SDS011;54772;53.544;49.324;2023-06-22T14:46:11;3.87;;;2.20;;
67995;SDS011;54772;53.544;49.324;2023-06-22T14:48:58;2.80;;;1.95;;
67995;SDS011;54772;53.544;49.324;2023-06-22T14:51:44;2.50;;;1.85;;
67995;SDS011;54772;53.544;49.324;2023-06-22T14:57:17;4.47;;;2.30;;
67995;SDS011;54772;53.544;49.324;2023-06-22T15:00:05;4.22;;;2.53;;
67995;SDS011;54772;53.544;49.324;2023-06-22T15:02:52;3.37;;;2.22;;
67995;SDS011;54772;53.544;49.324;2023-06-22T15:05:39;5.87;;;2.78;;
67995;SDS011;54772;53.544;49.324;2023-06-22T15:11:12;5.05;;;2.53;;
67995;SDS011;54772;53.544;49.324;2023-06-22T15:13:59;4.28;;;2.60;;
67995;SDS011;54772;53.544;49.324;2023-06-22T15:16:46;4.07;;;2.20;;
67995;SDS011;54772;53.544;49.324;2023-06-22T15:19:32;4.65;;;2.55;;
67995;SDS011;54772;53.544;49.324;2023-06-22T15:22:19;4.45;;;2.08;;
67995;SDS011;54772;53.544;49.324;2023-06-22T15:27:53;4.78;;;2.40;;
67995;SDS011;54772;53.544;49.324;2023-06-22T15:30:39;4.35;;;2.45;;
67995;SDS011;54772;53.544;49.324;2023-06-22T15:33:26;4.37;;;2.40;;
67995;SDS011;54772;53.544;49.324;2023-06-22T15:36:14;4.85;;;2.70;;
67995;SDS011;54772;53.544;49.324;2023-06-22T15:39:01;4.62;;;2.58;;
67995;SDS011;54772;53.544;49.324;2023-06-22T15:41:47;4.15;;;2.78;;
67995;SDS011;54772;53.544;49.324;2023-06-22T15:44:34;4.47;;;2.62;;
67995;SDS011;54772;53.544;49.324;2023-06-22T15:47:21;4.25;;;2.67;;
67995;SDS011;54772;53.544;49.324;2023-06-22T15:50:08;4.70;;;2.15;;
67995;SDS011;54772;53.544;49.324;2023-06-22T15:52:55;2.90;;;1.87;;
67995;SDS011;54772;53.544;49.324;2023-06-22T15:55:42;3.45;;;2.10;;
67995;SDS011;54772;53.544;49.324;2023-06-22T16:01:15;5.20;;;2.10;;
67995;SDS011;54772;53.544;49.324;2023-06-22T16:06:48;4.35;;;2.00;;
67995;SDS011;54772;53.544;49.324;2023-06-22T16:09:36;3.62;;;2.00;;
67995;SDS011;54772;53.544;49.324;2023-06-22T16:12:23;3.65;;;2.12;;
67995;SDS011;54772;53.544;49.324;2023-06-22T16:15:12;2.60;;;1.90;;
67995;SDS011;54772;53.544;49.324;2023-06-22T16:17:58;3.45;;;2.05;;
67995;SDS011;54772;53.544;49.324;2023-06-22T16:20:45;2.60;;;1.87;;
67995;SDS011;54772;53.544;49.324;2023-06-22T16:23:32;3.30;;;2.25;;
67995;SDS011;54772;53.544;49.324;2023-06-22T16:26:19;5.97;;;2.22;;
67995;SDS011;54772;53.544;49.324;2023-06-22T16:31:52;3.60;;;2.00;;
67995;SDS011;54772;53.544;49.324;2023-06-22T16:34:39;3.83;;;2.00;;
67995;SDS011;54772;53.544;49.324;2023-06-22T16:37:27;3.80;;;2.35;;
67995;SDS011;54772;53.544;49.324;2023-06-22T16:40:13;5.18;;;2.17;;
67995;SDS011;54772;53.544;49.324;2023-06-22T16:43:03;2.97;;;2.00;;
67995;SDS011;54772;53.544;49.324;2023-06-22T16:48:37;5.87;;;2.30;;
67995;SDS011;54772;53.544;49.324;2023-06-22T16:51:23;4.72;;;2.33;;
67995;SDS011;54772;53.544;49.324;2023-06-22T16:56:59;8.73;;;2.70;;
67995;SDS011;54772;53.544;49.324;2023-06-22T16:59:47;5.25;;;2.80;;
67995;SDS011;54772;53.544;49.324;2023-06-22T17:02:38;3.75;;;2.47;;
67995;SDS011;54772;53.544;49.324;2023-06-22T17:05:31;5.97;;;2.87;;
67995;SDS011;54772;53.544;49.324;2023-06-22T17:08:18;3.00;;;2.30;;
67995;SDS011;54772;53.544;49.324;2023-06-22T17:11:05;3.95;;;2.40;;
67995;SDS011;54772;53.544;49.324;2023-06-22T17:13:53;3.92;;;2.75;;
67995;SDS011;54772;53.544;49.324;2023-06-22T17:16:40;3.00;;;2.12;;
67995;SDS011;54772;53.544;49.324;2023-06-22T17:19:28;4.45;;;2.55;;
67995;SDS011;54772;53.544;49.324;2023-06-22T17:22:15;3.65;;;2.40;;
67995;SDS011;54772;53.544;49.324;2023-06-22T17:25:06;4.25;;;2.35;;
67995;SDS011;54772;53.544;49.324;2023-06-22T17:27:58;2.97;;;2.03;;
67995;SDS011;54772;53.544;49.324;2023-06-22T17:32:32;6.05;;;2.33;;
67995;SDS011;54772;53.544;49.324;2023-06-22T17:35:20;3.50;;;2.30;;
67995;SDS011;54772;53.544;49.324;2023-06-22T17:38:07;3.80;;;2.05;;
67995;SDS011;54772;53.544;49.324;2023-06-22T17:41:02;4.82;;;2.20;;
67995;SDS011;54772;53.544;49.324;2023-06-22T17:43:49;4.30;;;2.20;;
67995;SDS011;54772;53.544;49.324;2023-06-22T17:46:36;3.97;;;2.60;;
67995;SDS011;54772;53.544;49.324;2023-06-22T17:49:27;4.53;;;2.40;;
67995;SDS011;54772;53.544;49.324;2023-06-22T17:52:19;3.90;;;2.50;;
67995;SDS011;54772;53.544;49.324;2023-06-22T17:55:06;4.10;;;2.50;;
67995;SDS011;54772;53.544;49.324;2023-06-22T17:57:57;4.70;;;2.62;;
67995;SDS011;54772;53.544;49.324;2023-06-22T18:00:45;4.93;;;2.62;;
67995;SDS011;54772;53.544;49.324;2023-06-22T18:03:32;5.45;;;2.83;;
67995;SDS011;54772;53.544;49.324;2023-06-22T18:06:21;6.28;;;3.08;;
67995;SDS011;54772;53.544;49.324;2023-06-22T18:09:12;6.82;;;3.33;;
67995;SDS011;54772;53.544;49.324;2023-06-22T18:12:00;8.25;;;4.05;;
67995;SDS011;54772;53.544;49.324;2023-06-22T18:14:48;6.40;;;4.10;;
67995;SDS011;54772;53.544;49.324;2023-06-22T18:17:35;10.20;;;3.70;;
67995;SDS011;54772;53.544;49.324;2023-06-22T18:20:25;8.23;;;3.65;;
67995;SDS011;54772;53.544;49.324;2023-06-22T18:23:13;6.97;;;3.10;;
67995;SDS011;54772;53.544;49.324;2023-06-22T18:26:03;6.10;;;2.85;;
67995;SDS011;54772;53.544;49.324;2023-06-22T18:28:50;6.72;;;2.60;;
67995;SDS011;54772;53.544;49.324;2023-06-22T18:31:38;6.32;;;3.05;;
67995;SDS011;54772;53.544;49.324;2023-06-22T18:34:25;7.10;;;2.50;;
67995;SDS011;54772;53.544;49.324;2023-06-22T18:37:15;4.22;;;2.12;;
67995;SDS011;54772;53.544;49.324;2023-06-22T18:40:02;4.12;;;2.15;;
67995;SDS011;54772;53.544;49.324;2023-06-22T18:42:56;4.43;;;2.40;;
67995;SDS011;54772;53.544;49.324;2023-06-22T18:45:45;6.43;;;2.72;;
67995;SDS011;54772;53.544;49.324;2023-06-22T18:48:33;5.00;;;2.40;;
67995;SDS011;54772;53.544;49.324;2023-06-22T18:51:19;5.65;;;2.35;;
67995;SDS011;54772;53.544;49.324;2023-06-22T18:54:06;3.90;;;2.15;;
67995;SDS011;54772;53.544;49.324;2023-06-22T18:56:53;4.78;;;2.45;;
67995;SDS011;54772;53.544;49.324;2023-06-22T18:59:50;3.95;;;2.50;;
67995;SDS011;54772;53.544;49.324;2023-06-22T19:02:45;4.70;;;2.97;;
67995;SDS011;54772;53.544;49.324;2023-06-22T19:05:39;4.45;;;2.62;;
67995;SDS011;54772;53.544;49.324;2023-06-22T19:08:26;4.75;;;2.75;;